sensor_id;sensor_type;location;lat;lon;timestamp;P1;durP1;ratioP1;P2;durP2;ratioP2
37237;SDS011;23129;49.662;8.448;2022-09-09T00:01:46;3.42;;;1.40;;
37237;SDS011;23129;49.662;8.448;2022-09-09T00:04:24;6.38;;;1.55;;
37237;SDS011;23129;49.662;8.448;2022-09-09T00:06:57;10.27;;;1.80;;
37237;SDS011;23129;49.662;8.448;2022-09-09T00:09:34;3.97;;;1.50;;
37237;SDS011;23129;49.662;8.448;2022-09-09T00:12:12;2.13;;;1.00;;
37237;SDS011;23129;49.662;8.448;2022-09-09T00:14:47;2.53;;;1.30;;
37237;SDS011;23129;49.662;8.448;2022-09-09T00:17:23;10.43;;;1.98;;
37237;SDS011;23129;49.662;8.448;2022-09-09T00:20:01;5.53;;;1.40;;
37237;SDS011;23129;49.662;8.448;2022-09-09T00:22:40;3.28;;;1.55;;
37237;SDS011;23129;49.662;8.448;2022-09-09T00:25:14;2.85;;;1.38;;
37237;SDS011;23129;49.662;8.448;2022-09-09T00:27:49;5.85;;;1.30;;
37237;SDS011;23129;49.662;8.448;2022-09-09T00:30:19;1.98;;;1.42;;
37237;SDS011;23129;49.662;8.448;2022-09-09T00:32:53;3.53;;;1.20;;
37237;SDS011;23129;49.662;8.448;2022-09-09T00:35:25;2.97;;;1.43;;
37237;SDS011;23129;49.662;8.448;2022-09-09T00:37:59;4.97;;;1.27;;
37237;SDS011;23129;49.662;8.448;2022-09-09T00:40:38;3.00;;;1.13;;
37237;SDS011;23129;49.662;8.448;2022-09-09T00:43:27;7.15;;;1.73;;
37237;SDS011;23129;49.662;8.448;2022-09-09T00:46:06;5.70;;;1.38;;
37237;SDS011;23129;49.662;8.448;2022-09-09T00:49:11;6.80;;;1.45;;
37237;SDS011;23129;49.662;8.448;2022-09-09T00:51:51;4.85;;;1.42;;
37237;SDS011;23129;49.662;8.448;2022-09-09T00:54:33;2.80;;;1.55;;
37237;SDS011;23129;49.662;8.448;2022-09-09T00:57:19;7.65;;;1.60;;
37237;SDS011;23129;49.662;8.448;2022-09-09T01:02:52;3.92;;;1.45;;
37237;SDS011;23129;49.662;8.448;2022-09-09T01:05:42;11.50;;;1.90;;
37237;SDS011;23129;49.662;8.448;2022-09-09T01:08:20;4.45;;;1.95;;
37237;SDS011;23129;49.662;8.448;2022-09-09T01:11:05;6.75;;;2.30;;
37237;SDS011;23129;49.662;8.448;2022-09-09T01:13:43;6.07;;;1.95;;
37237;SDS011;23129;49.662;8.448;2022-09-09T01:16:14;1.90;;;1.60;;
37237;SDS011;23129;49.662;8.448;2022-09-09T01:18:44;3.50;;;1.65;;
37237;SDS011;23129;49.662;8.448;2022-09-09T01:21:19;8.60;;;2.03;;
37237;SDS011;23129;49.662;8.448;2022-09-09T01:24:07;7.78;;;1.77;;
37237;SDS011;23129;49.662;8.448;2022-09-09T01:27:06;4.03;;;1.38;;
37237;SDS011;23129;49.662;8.448;2022-09-09T01:29:35;3.42;;;1.30;;
37237;SDS011;23129;49.662;8.448;2022-09-09T01:35:10;2.35;;;1.23;;
37237;SDS011;23129;49.662;8.448;2022-09-09T01:37:46;6.25;;;1.33;;
37237;SDS011;23129;49.662;8.448;2022-09-09T01:40:15;10.48;;;1.50;;
37237;SDS011;23129;49.662;8.448;2022-09-09T01:42:47;8.45;;;1.40;;
37237;SDS011;23129;49.662;8.448;2022-09-09T01:45:16;3.28;;;1.38;;
37237;SDS011;23129;49.662;8.448;2022-09-09T01:47:45;4.20;;;1.05;;
37237;SDS011;23129;49.662;8.448;2022-09-09T01:50:31;3.28;;;1.38;;
37237;SDS011;23129;49.662;8.448;2022-09-09T01:53:00;4.43;;;0.98;;
37237;SDS011;23129;49.662;8.448;2022-09-09T01:55:32;3.63;;;1.33;;
37237;SDS011;23129;49.662;8.448;2022-09-09T01:58:14;4.05;;;1.27;;
37237;SDS011;23129;49.662;8.448;2022-09-09T02:01:01;1.27;;;0.65;;
37237;SDS011;23129;49.662;8.448;2022-09-09T02:03:38;3.55;;;1.35;;
37237;SDS011;23129;49.662;8.448;2022-09-09T02:06:18;3.10;;;1.00;;
37237;SDS011;23129;49.662;8.448;2022-09-09T02:09:03;6.32;;;1.48;;
37237;SDS011;23129;49.662;8.448;2022-09-09T02:11:34;6.82;;;1.30;;
37237;SDS011;23129;49.662;8.448;2022-09-09T02:14:16;7.45;;;1.38;;
37237;SDS011;23129;49.662;8.448;2022-09-09T02:16:52;7.35;;;1.17;;
37237;SDS011;23129;49.662;8.448;2022-09-09T02:19:34;4.53;;;1.05;;
37237;SDS011;23129;49.662;8.448;2022-09-09T02:22:19;4.68;;;1.20;;
37237;SDS011;23129;49.662;8.448;2022-09-09T02:24:52;1.25;;;1.15;;
37237;SDS011;23129;49.662;8.448;2022-09-09T02:27:26;5.25;;;1.60;;
37237;SDS011;23129;49.662;8.448;2022-09-09T02:29:57;8.05;;;2.05;;
37237;SDS011;23129;49.662;8.448;2022-09-09T02:32:38;5.45;;;1.67;;
37237;SDS011;23129;49.662;8.448;2022-09-09T02:35:13;6.00;;;1.40;;
37237;SDS011;23129;49.662;8.448;2022-09-09T02:37:44;2.83;;;1.35;;
37237;SDS011;23129;49.662;8.448;2022-09-09T02:40:15;7.07;;;1.58;;
37237;SDS011;23129;49.662;8.448;2022-09-09T02:42:48;4.03;;;1.40;;
37237;SDS011;23129;49.662;8.448;2022-09-09T02:45:22;4.57;;;1.15;;
37237;SDS011;23129;49.662;8.448;2022-09-09T02:47:56;4.80;;;1.33;;
37237;SDS011;23129;49.662;8.448;2022-09-09T02:50:38;3.80;;;1.27;;
37237;SDS011;23129;49.662;8.448;2022-09-09T02:53:16;8.75;;;1.55;;
37237;SDS011;23129;49.662;8.448;2022-09-09T02:55:49;6.32;;;1.20;;
37237;SDS011;23129;49.662;8.448;2022-09-09T02:58:25;4.90;;;1.00;;
37237;SDS011;23129;49.662;8.448;2022-09-09T03:00:59;9.60;;;1.13;;
37237;SDS011;23129;49.662;8.448;2022-09-09T03:03:29;8.77;;;1.02;;
37237;SDS011;23129;49.662;8.448;2022-09-09T03:06:03;4.53;;;0.90;;
37237;SDS011;23129;49.662;8.448;2022-09-09T03:08:32;2.53;;;1.10;;
37237;SDS011;23129;49.662;8.448;2022-09-09T03:11:00;2.33;;;0.60;;
37237;SDS011;23129;49.662;8.448;2022-09-09T03:13:32;1.33;;;1.05;;
37237;SDS011;23129;49.662;8.448;2022-09-09T03:16:02;8.48;;;1.05;;
37237;SDS011;23129;49.662;8.448;2022-09-09T03:18:37;6.50;;;0.88;;
37237;SDS011;23129;49.662;8.448;2022-09-09T03:21:05;3.05;;;0.90;;
37237;SDS011;23129;49.662;8.448;2022-09-09T03:23:36;3.22;;;1.00;;
37237;SDS011;23129;49.662;8.448;2022-09-09T03:26:04;1.67;;;0.75;;
37237;SDS011;23129;49.662;8.448;2022-09-09T03:28:39;2.95;;;1.50;;
37237;SDS011;23129;49.662;8.448;2022-09-09T03:31:09;6.22;;;1.10;;
37237;SDS011;23129;49.662;8.448;2022-09-09T03:33:40;2.55;;;1.40;;
37237;SDS011;23129;49.662;8.448;2022-09-09T03:36:11;9.95;;;1.45;;
37237;SDS011;23129;49.662;8.448;2022-09-09T03:38:40;2.55;;;1.58;;
37237;SDS011;23129;49.662;8.448;2022-09-09T03:41:09;6.97;;;1.27;;
37237;SDS011;23129;49.662;8.448;2022-09-09T03:43:39;12.02;;;1.65;;
37237;SDS011;23129;49.662;8.448;2022-09-09T03:46:09;5.78;;;1.80;;
37237;SDS011;23129;49.662;8.448;2022-09-09T03:48:38;3.35;;;1.17;;
37237;SDS011;23129;49.662;8.448;2022-09-09T03:51:06;7.22;;;1.02;;
37237;SDS011;23129;49.662;8.448;2022-09-09T03:53:34;3.17;;;1.35;;
37237;SDS011;23129;49.662;8.448;2022-09-09T03:56:05;11.63;;;1.30;;
37237;SDS011;23129;49.662;8.448;2022-09-09T03:58:34;5.50;;;1.35;;
37237;SDS011;23129;49.662;8.448;2022-09-09T04:01:07;1.63;;;1.00;;
37237;SDS011;23129;49.662;8.448;2022-09-09T04:03:41;10.85;;;1.40;;
37237;SDS011;23129;49.662;8.448;2022-09-09T04:06:11;2.78;;;1.45;;
37237;SDS011;23129;49.662;8.448;2022-09-09T04:08:44;5.78;;;1.75;;
37237;SDS011;23129;49.662;8.448;2022-09-09T04:11:14;7.55;;;1.40;;
37237;SDS011;23129;49.662;8.448;2022-09-09T04:13:45;5.68;;;1.55;;
37237;SDS011;23129;49.662;8.448;2022-09-09T04:16:14;1.77;;;1.40;;
37237;SDS011;23129;49.662;8.448;2022-09-09T04:18:43;7.15;;;1.50;;
37237;SDS011;23129;49.662;8.448;2022-09-09T04:21:13;5.85;;;1.27;;
37237;SDS011;23129;49.662;8.448;2022-09-09T04:23:42;8.07;;;1.48;;
37237;SDS011;23129;49.662;8.448;2022-09-09T04:26:13;3.80;;;1.33;;
37237;SDS011;23129;49.662;8.448;2022-09-09T04:28:43;4.63;;;0.93;;
37237;SDS011;23129;49.662;8.448;2022-09-09T04:31:18;6.13;;;1.90;;
37237;SDS011;23129;49.662;8.448;2022-09-09T04:33:52;6.82;;;1.20;;
37237;SDS011;23129;49.662;8.448;2022-09-09T04:36:21;5.15;;;1.42;;
37237;SDS011;23129;49.662;8.448;2022-09-09T04:38:54;5.05;;;1.45;;
37237;SDS011;23129;49.662;8.448;2022-09-09T04:41:22;2.70;;;0.90;;
37237;SDS011;23129;49.662;8.448;2022-09-09T04:43:52;4.28;;;1.10;;
37237;SDS011;23129;49.662;8.448;2022-09-09T04:46:24;6.57;;;0.95;;
37237;SDS011;23129;49.662;8.448;2022-09-09T04:48:53;3.60;;;1.17;;
37237;SDS011;23129;49.662;8.448;2022-09-09T04:51:25;11.50;;;1.25;;
37237;SDS011;23129;49.662;8.448;2022-09-09T04:53:54;4.55;;;1.02;;
37237;SDS011;23129;49.662;8.448;2022-09-09T04:56:23;4.85;;;1.38;;
37237;SDS011;23129;49.662;8.448;2022-09-09T04:58:55;9.43;;;1.30;;
37237;SDS011;23129;49.662;8.448;2022-09-09T05:01:39;7.38;;;1.27;;
37237;SDS011;23129;49.662;8.448;2022-09-09T05:04:07;15.15;;;1.23;;
37237;SDS011;23129;49.662;8.448;2022-09-09T05:06:35;6.93;;;1.00;;
37237;SDS011;23129;49.662;8.448;2022-09-09T05:09:04;5.28;;;1.08;;
37237;SDS011;23129;49.662;8.448;2022-09-09T05:11:33;5.82;;;0.88;;
37237;SDS011;23129;49.662;8.448;2022-09-09T05:14:22;2.58;;;1.15;;
37237;SDS011;23129;49.662;8.448;2022-09-09T05:16:52;10.63;;;1.13;;
37237;SDS011;23129;49.662;8.448;2022-09-09T05:19:21;6.93;;;1.27;;
37237;SDS011;23129;49.662;8.448;2022-09-09T05:21:51;7.97;;;1.23;;
37237;SDS011;23129;49.662;8.448;2022-09-09T05:26:57;4.10;;;0.70;;
37237;SDS011;23129;49.662;8.448;2022-09-09T05:29:28;5.53;;;0.70;;
37237;SDS011;23129;49.662;8.448;2022-09-09T05:31:57;3.72;;;0.57;;
37237;SDS011;23129;49.662;8.448;2022-09-09T05:34:26;4.40;;;1.00;;
37237;SDS011;23129;49.662;8.448;2022-09-09T05:36:55;2.97;;;0.90;;
37237;SDS011;23129;49.662;8.448;2022-09-09T05:39:25;4.35;;;1.48;;
37237;SDS011;23129;49.662;8.448;2022-09-09T05:41:53;6.10;;;0.82;;
37237;SDS011;23129;49.662;8.448;2022-09-09T05:44:22;1.45;;;0.68;;
37237;SDS011;23129;49.662;8.448;2022-09-09T05:46:54;2.25;;;0.77;;
37237;SDS011;23129;49.662;8.448;2022-09-09T05:49:25;5.25;;;0.70;;
37237;SDS011;23129;49.662;8.448;2022-09-09T05:51:53;8.57;;;0.75;;
37237;SDS011;23129;49.662;8.448;2022-09-09T05:54:22;6.97;;;0.85;;
37237;SDS011;23129;49.662;8.448;2022-09-09T05:56:53;3.45;;;1.00;;
37237;SDS011;23129;49.662;8.448;2022-09-09T05:59:22;5.95;;;1.00;;
37237;SDS011;23129;49.662;8.448;2022-09-09T06:01:53;1.35;;;0.65;;
37237;SDS011;23129;49.662;8.448;2022-09-09T06:04:32;2.05;;;0.65;;
37237;SDS011;23129;49.662;8.448;2022-09-09T06:07:01;3.10;;;0.40;;
37237;SDS011;23129;49.662;8.448;2022-09-09T06:09:29;3.00;;;1.25;;
37237;SDS011;23129;49.662;8.448;2022-09-09T06:11:58;3.78;;;0.93;;
37237;SDS011;23129;49.662;8.448;2022-09-09T06:14:26;4.20;;;0.70;;
37237;SDS011;23129;49.662;8.448;2022-09-09T06:16:58;4.07;;;0.80;;
37237;SDS011;23129;49.662;8.448;2022-09-09T06:19:31;6.72;;;1.00;;
37237;SDS011;23129;49.662;8.448;2022-09-09T06:22:00;8.45;;;1.10;;
37237;SDS011;23129;49.662;8.448;2022-09-09T06:24:32;11.85;;;1.13;;
37237;SDS011;23129;49.662;8.448;2022-09-09T06:27:01;2.75;;;0.98;;
37237;SDS011;23129;49.662;8.448;2022-09-09T06:29:33;4.57;;;0.88;;
37237;SDS011;23129;49.662;8.448;2022-09-09T06:32:02;2.78;;;0.73;;
37237;SDS011;23129;49.662;8.448;2022-09-09T06:34:32;10.77;;;0.63;;
37237;SDS011;23129;49.662;8.448;2022-09-09T06:37:02;6.63;;;0.73;;
37237;SDS011;23129;49.662;8.448;2022-09-09T06:39:45;7.10;;;0.70;;
37237;SDS011;23129;49.662;8.448;2022-09-09T06:42:14;9.07;;;1.17;;
37237;SDS011;23129;49.662;8.448;2022-09-09T06:44:48;4.88;;;0.85;;
37237;SDS011;23129;49.662;8.448;2022-09-09T06:47:30;6.45;;;1.15;;
37237;SDS011;23129;49.662;8.448;2022-09-09T06:50:01;7.07;;;1.50;;
37237;SDS011;23129;49.662;8.448;2022-09-09T06:52:33;8.00;;;1.52;;
37237;SDS011;23129;49.662;8.448;2022-09-09T06:55:02;5.68;;;1.00;;
37237;SDS011;23129;49.662;8.448;2022-09-09T06:57:32;4.75;;;1.00;;
37237;SDS011;23129;49.662;8.448;2022-09-09T07:00:17;7.07;;;1.10;;
37237;SDS011;23129;49.662;8.448;2022-09-09T07:02:46;5.05;;;0.73;;
37237;SDS011;23129;49.662;8.448;2022-09-09T07:05:18;11.70;;;1.05;;
37237;SDS011;23129;49.662;8.448;2022-09-09T07:07:47;1.80;;;0.70;;
37237;SDS011;23129;49.662;8.448;2022-09-09T07:10:18;5.35;;;0.98;;
37237;SDS011;23129;49.662;8.448;2022-09-09T07:12:49;6.88;;;0.90;;
37237;SDS011;23129;49.662;8.448;2022-09-09T07:17:49;7.63;;;0.73;;
37237;SDS011;23129;49.662;8.448;2022-09-09T07:20:19;5.63;;;1.02;;
37237;SDS011;23129;49.662;8.448;2022-09-09T07:22:49;3.75;;;0.93;;
37237;SDS011;23129;49.662;8.448;2022-09-09T07:25:17;4.78;;;0.93;;
37237;SDS011;23129;49.662;8.448;2022-09-09T07:27:47;5.40;;;0.93;;
37237;SDS011;23129;49.662;8.448;2022-09-09T07:30:16;3.90;;;1.05;;
37237;SDS011;23129;49.662;8.448;2022-09-09T07:32:53;2.63;;;1.05;;
37237;SDS011;23129;49.662;8.448;2022-09-09T07:35:25;6.70;;;1.05;;
37237;SDS011;23129;49.662;8.448;2022-09-09T07:37:54;4.45;;;0.77;;
37237;SDS011;23129;49.662;8.448;2022-09-09T07:40:22;6.28;;;1.00;;
37237;SDS011;23129;49.662;8.448;2022-09-09T07:42:51;3.15;;;0.90;;
37237;SDS011;23129;49.662;8.448;2022-09-09T07:45:20;3.08;;;0.68;;
37237;SDS011;23129;49.662;8.448;2022-09-09T07:47:49;15.13;;;1.20;;
37237;SDS011;23129;49.662;8.448;2022-09-09T07:50:19;5.30;;;0.82;;
37237;SDS011;23129;49.662;8.448;2022-09-09T07:52:50;3.92;;;0.93;;
37237;SDS011;23129;49.662;8.448;2022-09-09T07:55:19;7.72;;;1.30;;
37237;SDS011;23129;49.662;8.448;2022-09-09T07:57:50;3.65;;;0.95;;
37237;SDS011;23129;49.662;8.448;2022-09-09T08:00:21;1.75;;;0.82;;
37237;SDS011;23129;49.662;8.448;2022-09-09T08:02:53;4.72;;;1.05;;
37237;SDS011;23129;49.662;8.448;2022-09-09T08:05:22;6.35;;;0.85;;
37237;SDS011;23129;49.662;8.448;2022-09-09T08:07:53;9.88;;;1.25;;
37237;SDS011;23129;49.662;8.448;2022-09-09T08:10:22;9.30;;;1.30;;
37237;SDS011;23129;49.662;8.448;2022-09-09T08:12:52;7.90;;;0.60;;
37237;SDS011;23129;49.662;8.448;2022-09-09T08:15:41;4.55;;;1.13;;
37237;SDS011;23129;49.662;8.448;2022-09-09T08:18:11;4.90;;;1.02;;
37237;SDS011;23129;49.662;8.448;2022-09-09T08:20:40;3.70;;;1.00;;
37237;SDS011;23129;49.662;8.448;2022-09-09T08:23:10;5.57;;;0.98;;
37237;SDS011;23129;49.662;8.448;2022-09-09T08:25:38;9.13;;;0.77;;
37237;SDS011;23129;49.662;8.448;2022-09-09T08:28:07;2.97;;;0.63;;
37237;SDS011;23129;49.662;8.448;2022-09-09T08:30:36;4.90;;;1.17;;
37237;SDS011;23129;49.662;8.448;2022-09-09T08:33:05;8.30;;;1.10;;
37237;SDS011;23129;49.662;8.448;2022-09-09T08:35:34;7.35;;;1.10;;
37237;SDS011;23129;49.662;8.448;2022-09-09T08:38:02;11.13;;;1.35;;
37237;SDS011;23129;49.662;8.448;2022-09-09T08:40:39;5.18;;;0.70;;
37237;SDS011;23129;49.662;8.448;2022-09-09T08:43:12;4.75;;;0.70;;
37237;SDS011;23129;49.662;8.448;2022-09-09T08:45:46;6.72;;;0.93;;
37237;SDS011;23129;49.662;8.448;2022-09-09T08:48:32;7.38;;;1.08;;
37237;SDS011;23129;49.662;8.448;2022-09-09T08:51:19;4.25;;;1.10;;
37237;SDS011;23129;49.662;8.448;2022-09-09T08:53:48;7.00;;;1.25;;
37237;SDS011;23129;49.662;8.448;2022-09-09T08:56:26;6.95;;;0.95;;
37237;SDS011;23129;49.662;8.448;2022-09-09T08:59:00;2.10;;;0.60;;
37237;SDS011;23129;49.662;8.448;2022-09-09T09:01:44;5.65;;;0.85;;
37237;SDS011;23129;49.662;8.448;2022-09-09T09:04:43;9.57;;;1.17;;
37237;SDS011;23129;49.662;8.448;2022-09-09T09:07:33;4.43;;;0.98;;
37237;SDS011;23129;49.662;8.448;2022-09-09T09:10:15;13.50;;;1.15;;
37237;SDS011;23129;49.662;8.448;2022-09-09T09:13:13;6.13;;;0.85;;
37237;SDS011;23129;49.662;8.448;2022-09-09T09:15:49;8.90;;;0.80;;
37237;SDS011;23129;49.662;8.448;2022-09-09T09:18:25;6.53;;;0.80;;
37237;SDS011;23129;49.662;8.448;2022-09-09T09:20:57;7.57;;;0.52;;
37237;SDS011;23129;49.662;8.448;2022-09-09T09:23:33;2.83;;;0.70;;
37237;SDS011;23129;49.662;8.448;2022-09-09T09:26:10;3.17;;;0.57;;
37237;SDS011;23129;49.662;8.448;2022-09-09T09:28:40;5.38;;;0.80;;
37237;SDS011;23129;49.662;8.448;2022-09-09T09:31:14;10.52;;;1.23;;
37237;SDS011;23129;49.662;8.448;2022-09-09T09:33:47;11.35;;;1.77;;
37237;SDS011;23129;49.662;8.448;2022-09-09T09:36:22;5.97;;;1.13;;
37237;SDS011;23129;49.662;8.448;2022-09-09T09:39:02;16.00;;;1.30;;
37237;SDS011;23129;49.662;8.448;2022-09-09T09:41:52;8.90;;;2.05;;
37237;SDS011;23129;49.662;8.448;2022-09-09T09:44:23;11.13;;;1.75;;
37237;SDS011;23129;49.662;8.448;2022-09-09T09:47:05;13.57;;;1.35;;
37237;SDS011;23129;49.662;8.448;2022-09-09T09:49:36;10.35;;;1.45;;
37237;SDS011;23129;49.662;8.448;2022-09-09T09:52:06;8.52;;;1.25;;
37237;SDS011;23129;49.662;8.448;2022-09-09T09:54:44;6.65;;;1.40;;
37237;SDS011;23129;49.662;8.448;2022-09-09T09:57:14;10.95;;;1.08;;
37237;SDS011;23129;49.662;8.448;2022-09-09T09:59:47;10.00;;;0.95;;
37237;SDS011;23129;49.662;8.448;2022-09-09T10:02:22;17.00;;;1.10;;
37237;SDS011;23129;49.662;8.448;2022-09-09T10:05:00;4.93;;;0.90;;
37237;SDS011;23129;49.662;8.448;2022-09-09T10:07:33;6.40;;;0.80;;
37237;SDS011;23129;49.662;8.448;2022-09-09T10:10:04;5.03;;;0.90;;
37237;SDS011;23129;49.662;8.448;2022-09-09T10:12:43;6.45;;;1.23;;
37237;SDS011;23129;49.662;8.448;2022-09-09T10:15:32;5.07;;;0.85;;
37237;SDS011;23129;49.662;8.448;2022-09-09T10:18:22;10.18;;;2.10;;
37237;SDS011;23129;49.662;8.448;2022-09-09T10:21:07;9.27;;;1.50;;
37237;SDS011;23129;49.662;8.448;2022-09-09T10:24:13;7.03;;;1.70;;
37237;SDS011;23129;49.662;8.448;2022-09-09T10:27:33;10.98;;;1.15;;
37237;SDS011;23129;49.662;8.448;2022-09-09T10:30:12;4.63;;;0.95;;
37237;SDS011;23129;49.662;8.448;2022-09-09T10:32:47;7.30;;;1.15;;
37237;SDS011;23129;49.662;8.448;2022-09-09T10:35:26;6.30;;;1.33;;
37237;SDS011;23129;49.662;8.448;2022-09-09T10:38:13;9.00;;;0.90;;
37237;SDS011;23129;49.662;8.448;2022-09-09T10:40:59;13.43;;;1.23;;
37237;SDS011;23129;49.662;8.448;2022-09-09T10:43:55;10.05;;;1.08;;
37237;SDS011;23129;49.662;8.448;2022-09-09T10:49:57;2.05;;;0.70;;
37237;SDS011;23129;49.662;8.448;2022-09-09T10:52:53;6.32;;;0.90;;
37237;SDS011;23129;49.662;8.448;2022-09-09T10:55:33;5.93;;;0.82;;
37237;SDS011;23129;49.662;8.448;2022-09-09T10:58:10;12.13;;;1.23;;
37237;SDS011;23129;49.662;8.448;2022-09-09T11:00:45;9.73;;;1.08;;
37237;SDS011;23129;49.662;8.448;2022-09-09T11:03:23;6.80;;;0.95;;
37237;SDS011;23129;49.662;8.448;2022-09-09T11:05:59;4.27;;;0.60;;
37237;SDS011;23129;49.662;8.448;2022-09-09T11:08:33;8.38;;;1.02;;
37237;SDS011;23129;49.662;8.448;2022-09-09T11:11:07;5.63;;;0.82;;
37237;SDS011;23129;49.662;8.448;2022-09-09T11:13:44;4.32;;;0.73;;
37237;SDS011;23129;49.662;8.448;2022-09-09T11:16:20;5.65;;;0.90;;
37237;SDS011;23129;49.662;8.448;2022-09-09T11:18:58;5.60;;;0.80;;
37237;SDS011;23129;49.662;8.448;2022-09-09T11:21:34;12.93;;;1.20;;
37237;SDS011;23129;49.662;8.448;2022-09-09T11:24:10;3.75;;;0.73;;
37237;SDS011;23129;49.662;8.448;2022-09-09T11:26:44;4.80;;;0.90;;
37237;SDS011;23129;49.662;8.448;2022-09-09T11:29:34;6.30;;;1.08;;
37237;SDS011;23129;49.662;8.448;2022-09-09T11:36:21;6.20;;;0.60;;
37237;SDS011;23129;49.662;8.448;2022-09-09T11:39:29;6.22;;;0.82;;
37237;SDS011;23129;49.662;8.448;2022-09-09T11:42:22;10.07;;;0.70;;
37237;SDS011;23129;49.662;8.448;2022-09-09T11:44:52;7.63;;;0.88;;
37237;SDS011;23129;49.662;8.448;2022-09-09T11:47:22;4.47;;;1.17;;
37237;SDS011;23129;49.662;8.448;2022-09-09T11:50:06;2.88;;;0.73;;
37237;SDS011;23129;49.662;8.448;2022-09-09T11:52:40;2.97;;;0.80;;
37237;SDS011;23129;49.662;8.448;2022-09-09T11:55:24;4.35;;;0.80;;
37237;SDS011;23129;49.662;8.448;2022-09-09T11:57:57;5.05;;;1.00;;
37237;SDS011;23129;49.662;8.448;2022-09-09T12:00:33;4.22;;;0.80;;
37237;SDS011;23129;49.662;8.448;2022-09-09T12:03:04;3.97;;;1.40;;
37237;SDS011;23129;49.662;8.448;2022-09-09T12:05:36;7.18;;;1.15;;
37237;SDS011;23129;49.662;8.448;2022-09-09T12:08:08;8.20;;;1.00;;
37237;SDS011;23129;49.662;8.448;2022-09-09T12:10:39;3.85;;;0.98;;
37237;SDS011;23129;49.662;8.448;2022-09-09T12:13:09;9.90;;;1.00;;
37237;SDS011;23129;49.662;8.448;2022-09-09T12:15:48;3.63;;;1.38;;
37237;SDS011;23129;49.662;8.448;2022-09-09T12:18:21;8.93;;;1.00;;
37237;SDS011;23129;49.662;8.448;2022-09-09T12:20:54;10.10;;;0.70;;
37237;SDS011;23129;49.662;8.448;2022-09-09T12:23:36;2.70;;;0.60;;
37237;SDS011;23129;49.662;8.448;2022-09-09T12:26:17;3.80;;;0.60;;
37237;SDS011;23129;49.662;8.448;2022-09-09T12:29:02;3.53;;;0.70;;
37237;SDS011;23129;49.662;8.448;2022-09-09T12:31:41;1.73;;;0.32;;
37237;SDS011;23129;49.662;8.448;2022-09-09T12:34:16;7.20;;;0.70;;
37237;SDS011;23129;49.662;8.448;2022-09-09T12:36:59;5.90;;;0.80;;
37237;SDS011;23129;49.662;8.448;2022-09-09T12:42:14;4.97;;;0.90;;
37237;SDS011;23129;49.662;8.448;2022-09-09T12:44:52;4.97;;;0.77;;
37237;SDS011;23129;49.662;8.448;2022-09-09T12:47:25;2.60;;;0.82;;
37237;SDS011;23129;49.662;8.448;2022-09-09T12:50:14;3.50;;;0.70;;
37237;SDS011;23129;49.662;8.448;2022-09-09T12:52:46;6.88;;;0.68;;
37237;SDS011;23129;49.662;8.448;2022-09-09T12:55:20;4.43;;;0.45;;
37237;SDS011;23129;49.662;8.448;2022-09-09T13:00:21;2.03;;;0.52;;
37237;SDS011;23129;49.662;8.448;2022-09-09T13:02:52;3.97;;;0.57;;
37237;SDS011;23129;49.662;8.448;2022-09-09T13:05:22;6.80;;;1.02;;
37237;SDS011;23129;49.662;8.448;2022-09-09T13:08:00;2.53;;;0.75;;
37237;SDS011;23129;49.662;8.448;2022-09-09T13:10:31;1.15;;;0.50;;
37237;SDS011;23129;49.662;8.448;2022-09-09T13:13:21;3.30;;;0.90;;
37237;SDS011;23129;49.662;8.448;2022-09-09T13:15:53;9.55;;;0.77;;
37237;SDS011;23129;49.662;8.448;2022-09-09T13:18:24;6.95;;;0.60;;
37237;SDS011;23129;49.662;8.448;2022-09-09T13:20:57;13.55;;;1.20;;
37237;SDS011;23129;49.662;8.448;2022-09-09T13:23:27;7.38;;;1.10;;
37237;SDS011;23129;49.662;8.448;2022-09-09T13:26:00;2.95;;;0.82;;
37237;SDS011;23129;49.662;8.448;2022-09-09T13:28:34;1.50;;;0.73;;
37237;SDS011;23129;49.662;8.448;2022-09-09T13:31:02;5.25;;;1.17;;
37237;SDS011;23129;49.662;8.448;2022-09-09T13:33:33;3.80;;;1.23;;
37237;SDS011;23129;49.662;8.448;2022-09-09T13:36:04;4.78;;;0.88;;
37237;SDS011;23129;49.662;8.448;2022-09-09T13:38:36;4.30;;;1.05;;
37237;SDS011;23129;49.662;8.448;2022-09-09T13:41:09;3.30;;;0.80;;
37237;SDS011;23129;49.662;8.448;2022-09-09T13:43:42;4.15;;;1.23;;
37237;SDS011;23129;49.662;8.448;2022-09-09T13:46:23;4.32;;;0.60;;
37237;SDS011;23129;49.662;8.448;2022-09-09T13:48:56;6.30;;;0.80;;
37237;SDS011;23129;49.662;8.448;2022-09-09T13:51:30;17.05;;;1.35;;
37237;SDS011;23129;49.662;8.448;2022-09-09T13:54:03;2.25;;;0.57;;
37237;SDS011;23129;49.662;8.448;2022-09-09T13:56:35;1.88;;;0.70;;
37237;SDS011;23129;49.662;8.448;2022-09-09T13:59:05;1.30;;;0.70;;
37237;SDS011;23129;49.662;8.448;2022-09-09T14:01:38;3.45;;;0.65;;
37237;SDS011;23129;49.662;8.448;2022-09-09T14:04:07;6.38;;;0.75;;
37237;SDS011;23129;49.662;8.448;2022-09-09T14:06:37;2.47;;;0.52;;
37237;SDS011;23129;49.662;8.448;2022-09-09T14:09:07;2.47;;;0.50;;
37237;SDS011;23129;49.662;8.448;2022-09-09T14:11:40;10.10;;;0.70;;
37237;SDS011;23129;49.662;8.448;2022-09-09T14:14:09;3.70;;;0.68;;
37237;SDS011;23129;49.662;8.448;2022-09-09T14:16:37;3.15;;;0.80;;
37237;SDS011;23129;49.662;8.448;2022-09-09T14:19:07;5.85;;;0.85;;
37237;SDS011;23129;49.662;8.448;2022-09-09T14:21:35;8.80;;;0.93;;
37237;SDS011;23129;49.662;8.448;2022-09-09T14:24:04;4.88;;;0.90;;
37237;SDS011;23129;49.662;8.448;2022-09-09T14:26:33;2.55;;;0.60;;
37237;SDS011;23129;49.662;8.448;2022-09-09T14:29:03;3.67;;;0.70;;
37237;SDS011;23129;49.662;8.448;2022-09-09T14:31:31;4.60;;;0.68;;
37237;SDS011;23129;49.662;8.448;2022-09-09T14:33:59;1.15;;;0.60;;
37237;SDS011;23129;49.662;8.448;2022-09-09T14:36:28;4.65;;;0.90;;
37237;SDS011;23129;49.662;8.448;2022-09-09T14:38:56;3.38;;;0.73;;
37237;SDS011;23129;49.662;8.448;2022-09-09T14:41:25;3.75;;;0.80;;
37237;SDS011;23129;49.662;8.448;2022-09-09T14:43:55;10.20;;;1.25;;
37237;SDS011;23129;49.662;8.448;2022-09-09T14:46:26;4.03;;;1.10;;
37237;SDS011;23129;49.662;8.448;2022-09-09T14:48:54;6.93;;;0.75;;
37237;SDS011;23129;49.662;8.448;2022-09-09T14:51:23;3.13;;;0.82;;
37237;SDS011;23129;49.662;8.448;2022-09-09T14:53:53;8.48;;;0.80;;
37237;SDS011;23129;49.662;8.448;2022-09-09T14:56:25;5.80;;;0.82;;
37237;SDS011;23129;49.662;8.448;2022-09-09T14:58:56;6.05;;;0.73;;
37237;SDS011;23129;49.662;8.448;2022-09-09T15:01:28;3.50;;;0.73;;
37237;SDS011;23129;49.662;8.448;2022-09-09T15:03:58;2.40;;;1.17;;
37237;SDS011;23129;49.662;8.448;2022-09-09T15:06:29;2.30;;;0.68;;
37237;SDS011;23129;49.662;8.448;2022-09-09T15:09:00;5.72;;;0.50;;
37237;SDS011;23129;49.662;8.448;2022-09-09T15:11:30;4.40;;;0.47;;
37237;SDS011;23129;49.662;8.448;2022-09-09T15:14:04;2.40;;;0.50;;
37237;SDS011;23129;49.662;8.448;2022-09-09T15:16:34;6.53;;;0.63;;
37237;SDS011;23129;49.662;8.448;2022-09-09T15:19:03;1.27;;;0.45;;
37237;SDS011;23129;49.662;8.448;2022-09-09T15:21:32;3.40;;;0.90;;
37237;SDS011;23129;49.662;8.448;2022-09-09T15:24:03;6.30;;;1.20;;
37237;SDS011;23129;49.662;8.448;2022-09-09T15:26:33;1.40;;;0.80;;
37237;SDS011;23129;49.662;8.448;2022-09-09T15:29:05;3.08;;;0.88;;
37237;SDS011;23129;49.662;8.448;2022-09-09T15:31:35;5.40;;;0.90;;
37237;SDS011;23129;49.662;8.448;2022-09-09T15:34:04;7.82;;;0.85;;
37237;SDS011;23129;49.662;8.448;2022-09-09T15:36:35;1.55;;;0.52;;
37237;SDS011;23129;49.662;8.448;2022-09-09T15:39:05;3.63;;;1.30;;
37237;SDS011;23129;49.662;8.448;2022-09-09T15:41:35;7.72;;;1.02;;
37237;SDS011;23129;49.662;8.448;2022-09-09T15:44:04;5.82;;;0.73;;
37237;SDS011;23129;49.662;8.448;2022-09-09T15:46:33;1.50;;;0.57;;
37237;SDS011;23129;49.662;8.448;2022-09-09T15:49:05;2.22;;;0.40;;
37237;SDS011;23129;49.662;8.448;2022-09-09T15:51:37;2.75;;;0.70;;